sensor_id;sensor_type;location;lat;lon;timestamp;temperature;humidity
20376;DHT22;10347;51.828;6.466;2022-08-05T00:01:39;22.70;99.90
20376;DHT22;10347;51.828;6.466;2022-08-05T00:04:05;22.70;99.90
20376;DHT22;10347;51.828;6.466;2022-08-05T00:06:31;22.70;99.90
20376;DHT22;10347;51.828;6.466;2022-08-05T00:08:56;22.70;99.90
20376;DHT22;10347;51.828;6.466;2022-08-05T00:11:22;22.80;99.90
20376;DHT22;10347;51.828;6.466;2022-08-05T00:13:47;22.70;99.90
20376;DHT22;10347;51.828;6.466;2022-08-05T00:16:14;22.70;99.90
20376;DHT22;10347;51.828;6.466;2022-08-05T00:18:45;22.70;99.90
20376;DHT22;10347;51.828;6.466;2022-08-05T00:21:13;22.70;99.90
20376;DHT22;10347;51.828;6.466;2022-08-05T00:23:39;22.60;99.90
20376;DHT22;10347;51.828;6.466;2022-08-05T00:26:05;22.60;99.90
20376;DHT22;10347;51.828;6.466;2022-08-05T00:28:32;22.60;99.90
20376;DHT22;10347;51.828;6.466;2022-08-05T00:30:57;22.60;99.90
20376;DHT22;10347;51.828;6.466;2022-08-05T00:33:23;22.50;99.90
20376;DHT22;10347;51.828;6.466;2022-08-05T00:35:49;22.50;99.90
20376;DHT22;10347;51.828;6.466;2022-08-05T00:38:14;22.50;99.90
20376;DHT22;10347;51.828;6.466;2022-08-05T00:40:49;22.60;99.90
20376;DHT22;10347;51.828;6.466;2022-08-05T00:43:15;22.50;99.90
20376;DHT22;10347;51.828;6.466;2022-08-05T00:45:41;22.40;99.90
20376;DHT22;10347;51.828;6.466;2022-08-05T00:48:12;22.40;99.90
20376;DHT22;10347;51.828;6.466;2022-08-05T00:50:40;22.40;99.90
20376;DHT22;10347;51.828;6.466;2022-08-05T00:53:06;22.30;99.90
20376;DHT22;10347;51.828;6.466;2022-08-05T00:55:32;22.30;99.90
20376;DHT22;10347;51.828;6.466;2022-08-05T00:57:58;22.20;99.90
20376;DHT22;10347;51.828;6.466;2022-08-05T01:00:24;22.20;99.90
20376;DHT22;10347;51.828;6.466;2022-08-05T01:02:49;22.10;99.90
20376;DHT22;10347;51.828;6.466;2022-08-05T01:05:15;22.10;99.90
20376;DHT22;10347;51.828;6.466;2022-08-05T01:07:40;22.00;99.90
20376;DHT22;10347;51.828;6.466;2022-08-05T01:10:09;22.10;99.90
20376;DHT22;10347;51.828;6.466;2022-08-05T01:12:40;22.00;99.90
20376;DHT22;10347;51.828;6.466;2022-08-05T01:15:10;22.10;99.90
20376;DHT22;10347;51.828;6.466;2022-08-05T01:17:39;22.00;99.90
20376;DHT22;10347;51.828;6.466;2022-08-05T01:29:07;21.80;99.90
20376;DHT22;10347;51.828;6.466;2022-08-05T01:31:45;21.80;99.90
20376;DHT22;10347;51.828;6.466;2022-08-05T01:34:19;21.60;99.90
20376;DHT22;10347;51.828;6.466;2022-08-05T01:36:49;21.60;99.90
20376;DHT22;10347;51.828;6.466;2022-08-05T01:39:17;21.60;99.90
20376;DHT22;10347;51.828;6.466;2022-08-05T01:41:44;21.60;99.90
20376;DHT22;10347;51.828;6.466;2022-08-05T01:44:12;21.50;99.90
20376;DHT22;10347;51.828;6.466;2022-08-05T01:46:39;21.50;99.90
20376;DHT22;10347;51.828;6.466;2022-08-05T01:49:06;21.40;99.90
20376;DHT22;10347;51.828;6.466;2022-08-05T01:51:34;21.40;99.90
20376;DHT22;10347;51.828;6.466;2022-08-05T01:54:02;21.40;99.90
20376;DHT22;10347;51.828;6.466;2022-08-05T01:56:30;21.40;99.90
20376;DHT22;10347;51.828;6.466;2022-08-05T01:58:58;21.40;99.90
20376;DHT22;10347;51.828;6.466;2022-08-05T02:01:26;21.40;99.90
20376;DHT22;10347;51.828;6.466;2022-08-05T02:03:52;21.30;99.90
20376;DHT22;10347;51.828;6.466;2022-08-05T02:06:20;21.30;99.90
20376;DHT22;10347;51.828;6.466;2022-08-05T02:08:46;21.30;99.90
20376;DHT22;10347;51.828;6.466;2022-08-05T02:11:14;21.30;99.90
20376;DHT22;10347;51.828;6.466;2022-08-05T02:18:46;21.30;99.90
20376;DHT22;10347;51.828;6.466;2022-08-05T02:21:20;21.30;99.90
20376;DHT22;10347;51.828;6.466;2022-08-05T02:23:49;21.30;99.90
20376;DHT22;10347;51.828;6.466;2022-08-05T02:26:26;21.20;99.90
20376;DHT22;10347;51.828;6.466;2022-08-05T02:28:55;21.20;99.90
20376;DHT22;10347;51.828;6.466;2022-08-05T02:31:26;21.30;99.90
20376;DHT22;10347;51.828;6.466;2022-08-05T02:34:08;21.30;99.90
20376;DHT22;10347;51.828;6.466;2022-08-05T02:36:35;21.30;99.90
20376;DHT22;10347;51.828;6.466;2022-08-05T02:39:05;21.20;99.90
20376;DHT22;10347;51.828;6.466;2022-08-05T02:41:32;21.20;99.90
20376;DHT22;10347;51.828;6.466;2022-08-05T02:43:59;21.20;99.90
20376;DHT22;10347;51.828;6.466;2022-08-05T02:46:26;21.20;99.90
20376;DHT22;10347;51.828;6.466;2022-08-05T02:48:53;21.30;99.90
20376;DHT22;10347;51.828;6.466;2022-08-05T02:51:20;21.20;99.90
20376;DHT22;10347;51.828;6.466;2022-08-05T02:53:46;21.20;99.90
20376;DHT22;10347;51.828;6.466;2022-08-05T02:56:12;21.20;99.90
20376;DHT22;10347;51.828;6.466;2022-08-05T02:58:39;21.10;99.90
20376;DHT22;10347;51.828;6.466;2022-08-05T03:01:08;21.00;99.90
20376;DHT22;10347;51.828;6.466;2022-08-05T03:03:38;21.00;99.90
20376;DHT22;10347;51.828;6.466;2022-08-05T03:06:06;20.90;99.90
20376;DHT22;10347;51.828;6.466;2022-08-05T03:08:32;20.80;99.90
20376;DHT22;10347;51.828;6.466;2022-08-05T03:10:59;20.80;99.90
20376;DHT22;10347;51.828;6.466;2022-08-05T03:13:24;20.70;99.90
20376;DHT22;10347;51.828;6.466;2022-08-05T03:15:50;20.70;99.90
20376;DHT22;10347;51.828;6.466;2022-08-05T03:18:15;20.70;99.90
20376;DHT22;10347;51.828;6.466;2022-08-05T03:20:41;20.70;99.90
20376;DHT22;10347;51.828;6.466;2022-08-05T03:23:08;20.70;99.90
20376;DHT22;10347;51.828;6.466;2022-08-05T03:25:35;20.70;99.90
20376;DHT22;10347;51.828;6.466;2022-08-05T03:28:02;20.70;99.90
20376;DHT22;10347;51.828;6.466;2022-08-05T03:30:30;20.70;99.90
20376;DHT22;10347;51.828;6.466;2022-08-05T03:32:58;20.60;99.90
20376;DHT22;10347;51.828;6.466;2022-08-05T03:35:25;20.60;99.90
20376;DHT22;10347;51.828;6.466;2022-08-05T03:37:54;20.50;99.90
20376;DHT22;10347;51.828;6.466;2022-08-05T03:40:20;20.50;99.90
20376;DHT22;10347;51.828;6.466;2022-08-05T03:42:46;20.40;99.90
20376;DHT22;10347;51.828;6.466;2022-08-05T03:45:11;20.50;99.90
20376;DHT22;10347;51.828;6.466;2022-08-05T03:47:37;20.40;99.90
20376;DHT22;10347;51.828;6.466;2022-08-05T03:50:03;20.50;99.90
20376;DHT22;10347;51.828;6.466;2022-08-05T03:52:33;20.40;99.90
20376;DHT22;10347;51.828;6.466;2022-08-05T03:55:03;20.50;99.90
20376;DHT22;10347;51.828;6.466;2022-08-05T03:57:32;20.50;99.90
20376;DHT22;10347;51.828;6.466;2022-08-05T04:00:26;20.50;99.90
20376;DHT22;10347;51.828;6.466;2022-08-05T04:02:58;20.50;99.90
20376;DHT22;10347;51.828;6.466;2022-08-05T04:05:26;20.50;99.90
20376;DHT22;10347;51.828;6.466;2022-08-05T04:07:53;20.50;99.90
20376;DHT22;10347;51.828;6.466;2022-08-05T04:10:19;20.40;99.90
20376;DHT22;10347;51.828;6.466;2022-08-05T04:12:45;20.40;99.90
20376;DHT22;10347;51.828;6.466;2022-08-05T04:15:10;20.30;99.90
20376;DHT22;10347;51.828;6.466;2022-08-05T04:17:36;20.30;99.90
20376;DHT22;10347;51.828;6.466;2022-08-05T04:20:03;20.30;99.90
20376;DHT22;10347;51.828;6.466;2022-08-05T04:22:28;20.30;99.90
20376;DHT22;10347;51.828;6.466;2022-08-05T04:24:54;20.30;99.90
20376;DHT22;10347;51.828;6.466;2022-08-05T04:27:20;20.30;99.90
20376;DHT22;10347;51.828;6.466;2022-08-05T04:29:45;20.30;99.90
20376;DHT22;10347;51.828;6.466;2022-08-05T04:32:11;20.40;99.90
20376;DHT22;10347;51.828;6.466;2022-08-05T04:34:37;20.40;99.90
20376;DHT22;10347;51.828;6.466;2022-08-05T04:37:03;20.40;99.90
20376;DHT22;10347;51.828;6.466;2022-08-05T04:39:29;20.40;99.90
20376;DHT22;10347;51.828;6.466;2022-08-05T04:41:55;20.40;99.90
20376;DHT22;10347;51.828;6.466;2022-08-05T04:44:21;20.30;99.90
20376;DHT22;10347;51.828;6.466;2022-08-05T04:46:46;20.20;99.90
20376;DHT22;10347;51.828;6.466;2022-08-05T04:49:12;20.20;99.90
20376;DHT22;10347;51.828;6.466;2022-08-05T04:51:37;20.10;99.90
20376;DHT22;10347;51.828;6.466;2022-08-05T04:54:03;20.10;99.90
20376;DHT22;10347;51.828;6.466;2022-08-05T04:56:29;20.00;99.90
20376;DHT22;10347;51.828;6.466;2022-08-05T04:58:55;19.90;99.90
20376;DHT22;10347;51.828;6.466;2022-08-05T05:01:20;20.00;99.90
20376;DHT22;10347;51.828;6.466;2022-08-05T05:03:46;20.00;99.90
20376;DHT22;10347;51.828;6.466;2022-08-05T05:06:12;19.90;99.90
20376;DHT22;10347;51.828;6.466;2022-08-05T05:08:38;19.90;99.90
20376;DHT22;10347;51.828;6.466;2022-08-05T05:11:04;19.90;99.90
20376;DHT22;10347;51.828;6.466;2022-08-05T05:13:30;19.90;99.90
20376;DHT22;10347;51.828;6.466;2022-08-05T05:15:56;19.90;99.90
20376;DHT22;10347;51.828;6.466;2022-08-05T05:18:21;19.90;99.90
20376;DHT22;10347;51.828;6.466;2022-08-05T05:20:47;19.90;99.90
20376;DHT22;10347;51.828;6.466;2022-08-05T05:23:13;20.00;99.90
20376;DHT22;10347;51.828;6.466;2022-08-05T05:25:43;19.90;99.90
20376;DHT22;10347;51.828;6.466;2022-08-05T05:28:10;19.80;99.90
20376;DHT22;10347;51.828;6.466;2022-08-05T05:30:36;19.80;99.90
20376;DHT22;10347;51.828;6.466;2022-08-05T05:33:03;19.80;99.90
20376;DHT22;10347;51.828;6.466;2022-08-05T05:35:30;19.80;99.90
20376;DHT22;10347;51.828;6.466;2022-08-05T05:37:57;19.80;99.90
20376;DHT22;10347;51.828;6.466;2022-08-05T05:40:25;19.80;99.90
20376;DHT22;10347;51.828;6.466;2022-08-05T05:42:52;19.70;99.90
20376;DHT22;10347;51.828;6.466;2022-08-05T05:45:18;19.70;99.90
20376;DHT22;10347;51.828;6.466;2022-08-05T05:47:45;19.70;99.90
20376;DHT22;10347;51.828;6.466;2022-08-05T05:50:13;19.70;99.90
20376;DHT22;10347;51.828;6.466;2022-08-05T05:52:40;19.60;99.90
20376;DHT22;10347;51.828;6.466;2022-08-05T05:55:08;19.60;99.90
20376;DHT22;10347;51.828;6.466;2022-08-05T05:57:34;19.60;99.90
20376;DHT22;10347;51.828;6.466;2022-08-05T06:00:00;19.50;99.90
20376;DHT22;10347;51.828;6.466;2022-08-05T06:02:26;19.40;99.90
20376;DHT22;10347;51.828;6.466;2022-08-05T06:04:52;19.40;99.90
20376;DHT22;10347;51.828;6.466;2022-08-05T06:07:17;19.30;99.90
20376;DHT22;10347;51.828;6.466;2022-08-05T06:09:43;19.30;99.90
20376;DHT22;10347;51.828;6.466;2022-08-05T06:12:09;19.20;99.90
20376;DHT22;10347;51.828;6.466;2022-08-05T06:14:34;19.20;99.90
20376;DHT22;10347;51.828;6.466;2022-08-05T06:17:00;19.20;99.90
20376;DHT22;10347;51.828;6.466;2022-08-05T06:19:26;19.30;99.90
20376;DHT22;10347;51.828;6.466;2022-08-05T06:21:52;19.30;99.90
20376;DHT22;10347;51.828;6.466;2022-08-05T06:24:18;19.30;99.90
20376;DHT22;10347;51.828;6.466;2022-08-05T06:26:44;19.30;99.90
20376;DHT22;10347;51.828;6.466;2022-08-05T06:29:10;19.30;99.90
20376;DHT22;10347;51.828;6.466;2022-08-05T06:31:36;19.30;99.90
20376;DHT22;10347;51.828;6.466;2022-08-05T06:34:03;19.40;99.90
20376;DHT22;10347;51.828;6.466;2022-08-05T06:36:28;19.40;99.90
20376;DHT22;10347;51.828;6.466;2022-08-05T06:38:54;19.40;99.90
20376;DHT22;10347;51.828;6.466;2022-08-05T06:41:20;19.50;99.90
20376;DHT22;10347;51.828;6.466;2022-08-05T06:43:47;19.50;99.90
20376;DHT22;10347;51.828;6.466;2022-08-05T06:46:12;19.40;99.90
20376;DHT22;10347;51.828;6.466;2022-08-05T06:48:38;19.40;99.90
20376;DHT22;10347;51.828;6.466;2022-08-05T06:51:04;19.40;99.90
20376;DHT22;10347;51.828;6.466;2022-08-05T06:53:29;19.40;99.90
20376;DHT22;10347;51.828;6.466;2022-08-05T06:55:59;19.40;99.90
20376;DHT22;10347;51.828;6.466;2022-08-05T06:58:26;19.40;99.90
20376;DHT22;10347;51.828;6.466;2022-08-05T07:00:52;19.40;99.90
20376;DHT22;10347;51.828;6.466;2022-08-05T07:03:18;19.30;99.90
20376;DHT22;10347;51.828;6.466;2022-08-05T07:05:44;19.30;99.90
20376;DHT22;10347;51.828;6.466;2022-08-05T07:08:10;19.30;99.90
20376;DHT22;10347;51.828;6.466;2022-08-05T07:10:36;19.30;99.90
20376;DHT22;10347;51.828;6.466;2022-08-05T07:13:01;19.40;99.90
20376;DHT22;10347;51.828;6.466;2022-08-05T07:15:46;19.40;99.90
20376;DHT22;10347;51.828;6.466;2022-08-05T07:18:30;19.40;99.90
20376;DHT22;10347;51.828;6.466;2022-08-05T07:20:56;19.40;99.90
20376;DHT22;10347;51.828;6.466;2022-08-05T07:23:21;19.40;99.90
20376;DHT22;10347;51.828;6.466;2022-08-05T07:25:47;19.40;99.90
20376;DHT22;10347;51.828;6.466;2022-08-05T07:28:12;19.40;99.90
20376;DHT22;10347;51.828;6.466;2022-08-05T07:30:38;19.40;99.90
20376;DHT22;10347;51.828;6.466;2022-08-05T07:33:05;19.40;99.90
20376;DHT22;10347;51.828;6.466;2022-08-05T07:35:31;19.40;99.90
20376;DHT22;10347;51.828;6.466;2022-08-05T07:37:56;19.40;99.90
20376;DHT22;10347;51.828;6.466;2022-08-05T07:40:22;19.40;99.90
20376;DHT22;10347;51.828;6.466;2022-08-05T07:42:48;19.40;99.90
20376;DHT22;10347;51.828;6.466;2022-08-05T07:45:14;19.40;99.90
20376;DHT22;10347;51.828;6.466;2022-08-05T07:47:40;19.40;99.90
20376;DHT22;10347;51.828;6.466;2022-08-05T07:50:07;19.40;99.90
20376;DHT22;10347;51.828;6.466;2022-08-05T07:52:40;19.50;99.90
20376;DHT22;10347;51.828;6.466;2022-08-05T07:55:06;19.40;99.90
20376;DHT22;10347;51.828;6.466;2022-08-05T07:57:32;19.50;99.90
20376;DHT22;10347;51.828;6.466;2022-08-05T07:59:58;19.50;99.90
20376;DHT22;10347;51.828;6.466;2022-08-05T08:02:26;19.50;99.90
20376;DHT22;10347;51.828;6.466;2022-08-05T08:04:52;19.50;99.90
20376;DHT22;10347;51.828;6.466;2022-08-05T08:07:18;19.50;99.90
20376;DHT22;10347;51.828;6.466;2022-08-05T08:09:45;19.50;99.90
20376;DHT22;10347;51.828;6.466;2022-08-05T08:12:11;19.50;99.90
20376;DHT22;10347;51.828;6.466;2022-08-05T08:14:38;19.50;99.90
20376;DHT22;10347;51.828;6.466;2022-08-05T08:17:04;19.50;99.90
20376;DHT22;10347;51.828;6.466;2022-08-05T08:19:29;19.60;99.90
20376;DHT22;10347;51.828;6.466;2022-08-05T08:21:55;19.60;99.90
20376;DHT22;10347;51.828;6.466;2022-08-05T08:24:21;19.60;99.90
20376;DHT22;10347;51.828;6.466;2022-08-05T08:26:46;19.60;99.90
20376;DHT22;10347;51.828;6.466;2022-08-05T08:29:14;19.70;99.90
20376;DHT22;10347;51.828;6.466;2022-08-05T08:31:40;19.70;99.90
20376;DHT22;10347;51.828;6.466;2022-08-05T08:34:05;19.80;99.90
20376;DHT22;10347;51.828;6.466;2022-08-05T08:36:32;19.80;99.90
20376;DHT22;10347;51.828;6.466;2022-08-05T08:38:57;19.80;99.90
20376;DHT22;10347;51.828;6.466;2022-08-05T08:41:25;19.80;99.90
20376;DHT22;10347;51.828;6.466;2022-08-05T08:43:51;19.90;99.90
20376;DHT22;10347;51.828;6.466;2022-08-05T08:46:19;19.90;99.90
20376;DHT22;10347;51.828;6.466;2022-08-05T08:48:45;20.00;99.90
20376;DHT22;10347;51.828;6.466;2022-08-05T08:51:13;20.00;99.90
20376;DHT22;10347;51.828;6.466;2022-08-05T08:53:39;20.00;99.90
20376;DHT22;10347;51.828;6.466;2022-08-05T08:56:05;20.00;99.90
20376;DHT22;10347;51.828;6.466;2022-08-05T08:58:31;20.00;99.90
20376;DHT22;10347;51.828;6.466;2022-08-05T09:00:57;20.10;99.90
20376;DHT22;10347;51.828;6.466;2022-08-05T09:03:23;20.20;99.90
20376;DHT22;10347;51.828;6.466;2022-08-05T09:05:49;20.20;99.90
20376;DHT22;10347;51.828;6.466;2022-08-05T09:08:14;20.30;99.90
20376;DHT22;10347;51.828;6.466;2022-08-05T09:10:41;20.30;99.90
20376;DHT22;10347;51.828;6.466;2022-08-05T09:13:12;20.30;99.90
20376;DHT22;10347;51.828;6.466;2022-08-05T09:15:37;20.40;99.90
20376;DHT22;10347;51.828;6.466;2022-08-05T09:18:06;20.40;99.90
20376;DHT22;10347;51.828;6.466;2022-08-05T09:20:32;20.40;99.90
20376;DHT22;10347;51.828;6.466;2022-08-05T09:23:02;20.50;99.90
20376;DHT22;10347;51.828;6.466;2022-08-05T09:25:29;20.50;99.90
20376;DHT22;10347;51.828;6.466;2022-08-05T09:27:54;20.60;99.90
20376;DHT22;10347;51.828;6.466;2022-08-05T09:30:21;20.60;99.90
20376;DHT22;10347;51.828;6.466;2022-08-05T09:32:46;20.70;99.90
20376;DHT22;10347;51.828;6.466;2022-08-05T09:35:14;20.70;99.90
20376;DHT22;10347;51.828;6.466;2022-08-05T09:37:51;20.70;99.90
20376;DHT22;10347;51.828;6.466;2022-08-05T09:40:43;20.80;99.90
20376;DHT22;10347;51.828;6.466;2022-08-05T09:43:42;20.80;99.90
20376;DHT22;10347;51.828;6.466;2022-08-05T09:48:52;20.90;99.90
20376;DHT22;10347;51.828;6.466;2022-08-05T09:51:30;20.90;99.90
20376;DHT22;10347;51.828;6.466;2022-08-05T09:53:57;21.00;99.90
20376;DHT22;10347;51.828;6.466;2022-08-05T09:56:27;21.00;99.90
20376;DHT22;10347;51.828;6.466;2022-08-05T09:59:12;21.10;99.90
20376;DHT22;10347;51.828;6.466;2022-08-05T10:01:41;21.10;99.90
20376;DHT22;10347;51.828;6.466;2022-08-05T10:04:09;21.10;99.90
20376;DHT22;10347;51.828;6.466;2022-08-05T10:06:51;21.10;99.90
20376;DHT22;10347;51.828;6.466;2022-08-05T10:09:18;21.20;99.90
20376;DHT22;10347;51.828;6.466;2022-08-05T10:11:46;21.30;99.90
20376;DHT22;10347;51.828;6.466;2022-08-05T10:14:29;21.30;99.90
20376;DHT22;10347;51.828;6.466;2022-08-05T10:17:10;21.30;99.90
20376;DHT22;10347;51.828;6.466;2022-08-05T10:19:36;21.40;99.90
20376;DHT22;10347;51.828;6.466;2022-08-05T10:22:02;21.50;99.90
20376;DHT22;10347;51.828;6.466;2022-08-05T10:24:31;21.50;99.90
20376;DHT22;10347;51.828;6.466;2022-08-05T10:26:57;21.60;99.90
20376;DHT22;10347;51.828;6.466;2022-08-05T10:29:24;21.60;99.90
20376;DHT22;10347;51.828;6.466;2022-08-05T10:31:51;21.70;99.90
20376;DHT22;10347;51.828;6.466;2022-08-05T10:34:17;21.80;99.90
20376;DHT22;10347;51.828;6.466;2022-08-05T10:36:43;21.80;99.90
20376;DHT22;10347;51.828;6.466;2022-08-05T10:39:20;21.80;99.90
20376;DHT22;10347;51.828;6.466;2022-08-05T10:42:00;21.90;99.90
20376;DHT22;10347;51.828;6.466;2022-08-05T10:44:28;21.90;99.90
20376;DHT22;10347;51.828;6.466;2022-08-05T10:46:55;22.00;99.90
20376;DHT22;10347;51.828;6.466;2022-08-05T10:49:23;22.00;99.90
20376;DHT22;10347;51.828;6.466;2022-08-05T10:51:53;22.00;99.90
20376;DHT22;10347;51.828;6.466;2022-08-05T10:54:44;22.00;99.90
20376;DHT22;10347;51.828;6.466;2022-08-05T10:57:11;22.00;99.90
20376;DHT22;10347;51.828;6.466;2022-08-05T10:59:37;22.10;99.90
20376;DHT22;10347;51.828;6.466;2022-08-05T11:02:11;22.10;99.90
20376;DHT22;10347;51.828;6.466;2022-08-05T11:04:45;22.10;99.90
20376;DHT22;10347;51.828;6.466;2022-08-05T11:07:11;22.10;99.90
20376;DHT22;10347;51.828;6.466;2022-08-05T11:09:52;22.10;99.90
20376;DHT22;10347;51.828;6.466;2022-08-05T11:17:42;22.20;99.90
20376;DHT22;10347;51.828;6.466;2022-08-05T11:22:57;22.30;99.90
20376;DHT22;10347;51.828;6.466;2022-08-05T11:25:36;22.40;99.90
20376;DHT22;10347;51.828;6.466;2022-08-05T11:36:15;22.70;99.90
20376;DHT22;10347;51.828;6.466;2022-08-05T11:41:21;22.80;99.90
20376;DHT22;10347;51.828;6.466;2022-08-05T11:44:00;22.80;99.90
20376;DHT22;10347;51.828;6.466;2022-08-05T11:48:53;22.80;99.90
20376;DHT22;10347;51.828;6.466;2022-08-05T11:51:19;22.80;99.90
20376;DHT22;10347;51.828;6.466;2022-08-05T11:53:45;22.80;99.90
20376;DHT22;10347;51.828;6.466;2022-08-05T11:56:11;22.90;99.90
20376;DHT22;10347;51.828;6.466;2022-08-05T11:58:39;22.90;99.90
20376;DHT22;10347;51.828;6.466;2022-08-05T12:01:13;23.00;99.90
20376;DHT22;10347;51.828;6.466;2022-08-05T12:03:52;23.10;99.90
20376;DHT22;10347;51.828;6.466;2022-08-05T12:06:25;23.10;99.90
20376;DHT22;10347;51.828;6.466;2022-08-05T12:08:56;23.20;99.90
20376;DHT22;10347;51.828;6.466;2022-08-05T12:11:23;23.30;99.90
20376;DHT22;10347;51.828;6.466;2022-08-05T12:14:00;23.40;99.90
20376;DHT22;10347;51.828;6.466;2022-08-05T12:16:34;23.40;99.90
20376;DHT22;10347;51.828;6.466;2022-08-05T12:19:00;23.50;99.90
20376;DHT22;10347;51.828;6.466;2022-08-05T12:21:28;23.40;99.90
20376;DHT22;10347;51.828;6.466;2022-08-05T12:24:03;23.50;99.90
20376;DHT22;10347;51.828;6.466;2022-08-05T12:26:40;23.60;99.90
20376;DHT22;10347;51.828;6.466;2022-08-05T12:29:13;23.60;99.90
20376;DHT22;10347;51.828;6.466;2022-08-05T12:31:39;23.70;99.90
20376;DHT22;10347;51.828;6.466;2022-08-05T12:34:06;23.70;99.90
20376;DHT22;10347;51.828;6.466;2022-08-05T12:36:34;23.70;99.90
20376;DHT22;10347;51.828;6.466;2022-08-05T12:39:00;23.60;99.90
20376;DHT22;10347;51.828;6.466;2022-08-05T12:41:34;23.60;99.80
20376;DHT22;10347;51.828;6.466;2022-08-05T12:44:05;23.60;99.00
20376;DHT22;10347;51.828;6.466;2022-08-05T12:46:32;23.60;98.30
20376;DHT22;10347;51.828;6.466;2022-08-05T12:49:04;23.60;99.00
20376;DHT22;10347;51.828;6.466;2022-08-05T12:51:30;23.60;98.10
20376;DHT22;10347;51.828;6.466;2022-08-05T12:54:01;23.60;97.70
20376;DHT22;10347;51.828;6.466;2022-08-05T12:56:28;23.60;97.30
20376;DHT22;10347;51.828;6.466;2022-08-05T12:59:42;23.60;97.80
20376;DHT22;10347;51.828;6.466;2022-08-05T13:02:09;23.60;95.00
20376;DHT22;10347;51.828;6.466;2022-08-05T13:04:36;23.60;95.60
20376;DHT22;10347;51.828;6.466;2022-08-05T13:07:05;23.60;95.80
20376;DHT22;10347;51.828;6.466;2022-08-05T13:09:33;23.60;95.20
20376;DHT22;10347;51.828;6.466;2022-08-05T13:12:04;23.70;95.00
20376;DHT22;10347;51.828;6.466;2022-08-05T13:14:41;23.80;94.10
20376;DHT22;10347;51.828;6.466;2022-08-05T13:17:27;23.80;94.50
20376;DHT22;10347;51.828;6.466;2022-08-05T13:20:13;23.90;93.80
20376;DHT22;10347;51.828;6.466;2022-08-05T13:22:41;24.00;95.10
20376;DHT22;10347;51.828;6.466;2022-08-05T13:25:11;24.00;94.50
20376;DHT22;10347;51.828;6.466;2022-08-05T13:27:46;24.00;93.10
20376;DHT22;10347;51.828;6.466;2022-08-05T13:30:13;24.00;94.10
20376;DHT22;10347;51.828;6.466;2022-08-05T13:32:40;24.00;93.70
20376;DHT22;10347;51.828;6.466;2022-08-05T13:35:06;24.00;92.70
20376;DHT22;10347;51.828;6.466;2022-08-05T13:37:33;24.00;92.90
20376;DHT22;10347;51.828;6.466;2022-08-05T13:39:59;24.00;91.70
20376;DHT22;10347;51.828;6.466;2022-08-05T13:42:25;24.00;92.60
20376;DHT22;10347;51.828;6.466;2022-08-05T13:44:55;24.00;91.80
20376;DHT22;10347;51.828;6.466;2022-08-05T13:47:22;24.00;91.00
20376;DHT22;10347;51.828;6.466;2022-08-05T13:49:49;24.00;91.50
20376;DHT22;10347;51.828;6.466;2022-08-05T13:52:19;24.00;91.30
20376;DHT22;10347;51.828;6.466;2022-08-05T13:54:45;24.00;90.40
20376;DHT22;10347;51.828;6.466;2022-08-05T13:57:12;24.00;90.10
20376;DHT22;10347;51.828;6.466;2022-08-05T13:59:39;24.00;90.60
20376;DHT22;10347;51.828;6.466;2022-08-05T14:02:06;24.00;90.20
20376;DHT22;10347;51.828;6.466;2022-08-05T14:04:37;24.00;88.50
20376;DHT22;10347;51.828;6.466;2022-08-05T14:07:24;24.00;88.10
20376;DHT22;10347;51.828;6.466;2022-08-05T14:09:50;24.00;88.50
20376;DHT22;10347;51.828;6.466;2022-08-05T14:12:15;24.00;89.20
20376;DHT22;10347;51.828;6.466;2022-08-05T14:14:41;23.90;88.90
20376;DHT22;10347;51.828;6.466;2022-08-05T14:17:07;23.90;89.30
20376;DHT22;10347;51.828;6.466;2022-08-05T14:19:32;23.80;88.60
20376;DHT22;10347;51.828;6.466;2022-08-05T14:21:58;23.80;89.00
20376;DHT22;10347;51.828;6.466;2022-08-05T14:24:24;23.80;88.50
20376;DHT22;10347;51.828;6.466;2022-08-05T14:26:50;23.80;87.30
20376;DHT22;10347;51.828;6.466;2022-08-05T14:29:15;23.80;86.80
20376;DHT22;10347;51.828;6.466;2022-08-05T14:31:41;23.80;86.90
20376;DHT22;10347;51.828;6.466;2022-08-05T14:34:06;23.80;87.60
20376;DHT22;10347;51.828;6.466;2022-08-05T14:36:32;23.80;88.40
20376;DHT22;10347;51.828;6.466;2022-08-05T14:38:58;23.80;87.40
20376;DHT22;10347;51.828;6.466;2022-08-05T14:41:23;23.80;86.20
20376;DHT22;10347;51.828;6.466;2022-08-05T14:43:49;23.80;84.60
20376;DHT22;10347;51.828;6.466;2022-08-05T14:46:16;23.80;85.70
20376;DHT22;10347;51.828;6.466;2022-08-05T14:48:42;23.90;85.10
20376;DHT22;10347;51.828;6.466;2022-08-05T14:51:07;23.90;85.00
20376;DHT22;10347;51.828;6.466;2022-08-05T14:53:33;24.00;83.50
20376;DHT22;10347;51.828;6.466;2022-08-05T14:55:59;24.10;84.00
20376;DHT22;10347;51.828;6.466;2022-08-05T14:58:25;24.10;84.40
20376;DHT22;10347;51.828;6.466;2022-08-05T15:00:50;24.20;86.30
20376;DHT22;10347;51.828;6.466;2022-08-05T15:03:16;24.30;86.80
20376;DHT22;10347;51.828;6.466;2022-08-05T15:05:41;24.40;85.20
20376;DHT22;10347;51.828;6.466;2022-08-05T15:08:07;24.30;85.60
20376;DHT22;10347;51.828;6.466;2022-08-05T15:10:33;24.30;86.10
20376;DHT22;10347;51.828;6.466;2022-08-05T15:12:58;24.30;86.10
20376;DHT22;10347;51.828;6.466;2022-08-05T15:15:25;24.30;87.30
20376;DHT22;10347;51.828;6.466;2022-08-05T15:17:51;24.30;86.60
20376;DHT22;10347;51.828;6.466;2022-08-05T15:20:16;24.40;87.30
20376;DHT22;10347;51.828;6.466;2022-08-05T15:22:42;24.40;86.70
20376;DHT22;10347;51.828;6.466;2022-08-05T15:25:08;24.40;86.90
20376;DHT22;10347;51.828;6.466;2022-08-05T15:27:34;24.40;85.40
20376;DHT22;10347;51.828;6.466;2022-08-05T15:30:00;24.40;83.90
20376;DHT22;10347;51.828;6.466;2022-08-05T15:32:25;24.40;85.30
20376;DHT22;10347;51.828;6.466;2022-08-05T15:34:51;24.40;84.00
20376;DHT22;10347;51.828;6.466;2022-08-05T15:37:17;24.40;83.10
20376;DHT22;10347;51.828;6.466;2022-08-05T15:39:42;24.30;82.50
20376;DHT22;10347;51.828;6.466;2022-08-05T15:42:09;24.40;83.50
20376;DHT22;10347;51.828;6.466;2022-08-05T15:44:39;24.40;81.40
20376;DHT22;10347;51.828;6.466;2022-08-05T15:47:08;24.30;82.10
20376;DHT22;10347;51.828;6.466;2022-08-05T15:49:34;24.30;82.80
20376;DHT22;10347;51.828;6.466;2022-08-05T15:52:00;24.40;82.20
20376;DHT22;10347;51.828;6.466;2022-08-05T15:54:26;24.40;83.40
20376;DHT22;10347;51.828;6.466;2022-08-05T15:56:52;24.40;83.40
20376;DHT22;10347;51.828;6.466;2022-08-05T15:59:17;24.50;84.10
20376;DHT22;10347;51.828;6.466;2022-08-05T16:01:43;24.50;84.70
20376;DHT22;10347;51.828;6.466;2022-08-05T16:04:09;24.40;84.30
20376;DHT22;10347;51.828;6.466;2022-08-05T16:06:35;24.40;84.30
20376;DHT22;10347;51.828;6.466;2022-08-05T16:09:01;24.30;84.50
20376;DHT22;10347;51.828;6.466;2022-08-05T16:11:27;24.20;84.50
20376;DHT22;10347;51.828;6.466;2022-08-05T16:13:53;24.20;84.70